Time;durP1;ratioP1;P1;durP2;ratioP2;P2;SDS_P1;SDS_P2;PMS_P1;PMS_P2;Temp;Humidity;BMP_temperature;BMP_pressure;BME280_temperature;BME280_humidity;BME280_pressure;Samples;Min_cycle;Max_cycle;Signal;HPM_P1;HPM_P2
2022/04/06 00:01:04;;;;;;;22.50;20.60;;;;;;;7.49;74.38;98956.55;111426;1241;23721;-78
2022/04/06 00:04:09;;;;;;;22.60;20.50;;;;;;;7.51;74.43;98956.17;111826;1241;21981;-78
2022/04/06 00:06:58;;;;;;;23.30;21.30;;;;;;;7.52;74.43;98958.83;111420;1242;21998;-78
2022/04/06 00:09:46;;;;;;;21.40;19.50;;;;;;;7.53;74.51;98956.96;111980;1236;22743;-76
2022/04/06 00:12:53;;;;;;;21.70;19.80;;;;;;;7.52;74.52;98958.58;111810;1241;22992;-76
2022/04/06 00:15:49;;;;;;;20.90;19.10;;;;;;;7.54;74.69;98956.09;111520;1242;21962;-77
2022/04/06 00:19:01;;;;;;;21.20;19.40;;;;;;;7.55;74.73;98955.30;111747;1241;23719;-77
2022/04/06 00:22:00;;;;;;;19.00;17.40;;;;;;;7.56;74.79;98955.16;111580;1241;22717;-78
2022/04/06 00:25:32;;;;;;;;;;;;;;;;;;;;;
2022/04/06 00:28:40;;;;;;;20.80;18.90;;;;;;;7.62;75.15;98958.30;110623;1253;23695;-76
2022/04/06 00:31:33;;;;;;;18.70;17.10;;;;;;;7.65;75.15;98959.78;110477;1254;21978;-78
2022/04/06 00:34:13;;;;;;;20.00;18.30;;;;;;;7.67;75.16;98963.54;110614;1253;22002;-78
2022/04/06 00:37:13;;;;;;;19.60;18.00;;;;;;;7.68;75.12;98965.13;110580;1254;23125;-78
2022/04/06 00:39:57;;;;;;;21.40;19.30;;;;;;;7.68;74.96;98963.52;110578;1254;22131;-77
2022/04/06 00:42:47;;;;;;;20.20;18.40;;;;;;;7.67;75.09;98962.77;110721;1250;22095;-77
2022/04/06 00:45:50;;;;;;;;;;;;;;;;;;;;;
2022/04/06 00:48:31;;;;;;;19.60;17.90;;;;;;;7.68;75.29;98972.16;110982;1250;22003;-78
2022/04/06 00:51:18;;;;;;;19.20;17.60;;;;;;;7.69;75.34;98970.08;110888;1251;22031;-77
2022/04/06 00:54:47;;;;;;;21.00;19.10;;;;;;;7.71;75.33;98969.56;110161;1257;22269;-77
2022/04/06 00:57:52;;;;;;;19.90;18.20;;;;;;;7.68;75.39;98967.55;110357;1257;23062;-77
2022/04/06 01:00:43;;;;;;;;;;;;;;;;;;;;;
2022/04/06 01:03:15;;;;;;;19.70;18.00;;;;;;;7.69;75.52;98968.86;110623;1251;22078;-77
2022/04/06 01:06:03;;;;;;;20.30;18.60;;;;;;;7.74;75.66;98966.56;110108;1257;23607;-77
2022/04/06 01:09:13;;;;;;;20.00;18.10;;;;;;;7.75;75.63;98962.72;110490;1251;23664;-78
2022/04/06 01:12:07;;;;;;;;;;;;;;;;;;;;;
2022/04/06 01:15:24;;;;;;;;;;;;;;;;;;;;;
2022/04/06 01:18:12;;;;;;;18.80;17.20;;;;;;;7.76;75.95;98966.85;111264;1239;22046;-77
2022/04/06 01:21:12;;;;;;;18.30;16.70;;;;;;;7.77;76.03;98960.19;111896;1238;23063;-78
2022/04/06 01:24:20;;;;;;;17.80;16.20;;;;;;;7.79;75.97;98953.38;112009;1235;21954;-77
2022/04/06 01:27:02;;;;;;;15.20;14.00;;;;;;;7.78;76.09;98960.45;112448;1237;21965;-77
2022/04/06 01:29:58;;;;;;;14.80;13.50;;;;;;;7.79;76.17;98958.95;111705;1241;21966;-78
2022/04/06 01:32:50;;;;;;;13.60;12.50;;;;;;;7.79;76.17;98962.07;111993;1241;22024;-78
2022/04/06 01:35:53;;;;;;;12.90;11.70;;;;;;;7.79;76.27;98959.64;111746;1241;21964;-78
2022/04/06 01:38:46;;;;;;;11.00;10.10;;;;;;;7.80;76.38;98961.48;111642;1241;21964;-78
2022/04/06 01:41:42;;;;;;;10.70;9.70;;;;;;;7.81;76.36;98965.00;111853;1238;23664;-79
2022/04/06 01:44:44;;;;;;;11.70;10.60;;;;;;;7.81;76.56;98960.73;111719;1242;21961;-77
2022/04/06 01:48:04;;;;;;;10.20;9.30;;;;;;;7.84;76.49;98956.88;110838;1245;22757;-77
2022/04/06 01:54:21;;;;;;;10.30;9.40;;;;;;;7.86;76.67;98969.59;110893;1250;22032;-79
2022/04/06 01:57:23;;;;;;;10.60;9.60;;;;;;;7.90;76.78;98965.64;110872;1251;23346;-79
2022/04/06 02:00:44;;;;;;;;;;;;;;;;;;;;;
2022/04/06 02:03:51;;;;;;;8.50;7.70;;;;;;;7.94;76.65;98965.73;110634;1251;22004;-79
2022/04/06 02:06:44;;;;;;;9.00;8.20;;;;;;;7.95;76.75;98974.03;111152;1244;22046;-78
2022/04/06 02:09:59;;;;;;;;;;;;;;;;;;;;;
2022/04/06 02:13:11;;;;;;;9.30;8.40;;;;;;;8.00;76.75;98978.09;111278;1245;22862;-78
2022/04/06 02:16:41;;;;;;;;;;;;;;;;;;;;;
2022/04/06 02:19:56;;;;;;;9.40;8.60;;;;;;;7.99;76.66;98985.21;111516;1244;21993;-79
2022/04/06 02:23:42;;;;;;;;;;;;;;;;;;;;;
2022/04/06 02:26:51;;;;;;;11.10;10.20;;;;;;;8.03;76.78;98991.77;111507;1244;23705;-78
2022/04/06 02:30:04;;;;;;;;;;;;;;;;;;;;;
2022/04/06 02:33:20;;;;;;;;;;;;;;;;;;;;;
2022/04/06 02:36:35;;;;;;;14.60;13.40;;;;;;;8.07;76.90;98991.77;111333;1244;23673;-77
2022/04/06 02:39:38;;;;;;;13.90;12.70;;;;;;;8.08;76.92;98985.59;111610;1238;22307;-77
2022/04/06 02:42:46;;;;;;;;;;;;;;;;;;;;;
2022/04/06 02:46:31;;;;;;;15.30;13.90;;;;;;;8.10;76.97;98991.98;113035;1231;22010;-77
2022/04/06 02:49:21;;;;;;;15.70;14.40;;;;;;;8.14;77.00;98993.34;112975;1230;23658;-78
2022/04/06 02:53:07;;;;;;;;;;;;;;;;;;;;;
2022/04/06 02:56:04;;;;;;;14.30;13.20;;;;;;;8.18;77.05;98991.98;110401;1256;23096;-77
2022/04/06 02:59:06;;;;;;;14.00;12.90;;;;;;;8.20;77.02;98983.98;110252;1256;23690;-77
2022/04/06 03:02:31;;;;;;;13.70;12.60;;;;;;;8.21;76.91;98982.26;110399;1256;22739;-77
2022/04/06 03:05:39;;;;;;;14.50;13.30;;;;;;;8.21;77.06;98981.45;109208;1265;23053;-77
2022/04/06 03:09:08;;;;;;;14.50;13.10;;;;;;;8.23;77.14;98983.00;109076;1265;22007;-78
2022/04/06 03:12:09;;;;;;;13.20;12.00;;;;;;;8.25;77.06;98981.20;108928;1267;22017;-77
2022/04/06 03:15:03;;;;;;;;;;;;;;;;;;;;;
2022/04/06 03:17:53;;;;;;;12.80;11.80;;;;;;;8.27;76.99;98984.50;109545;1263;23628;-76
2022/04/06 03:20:37;;;;;;;13.80;12.70;;;;;;;8.30;77.07;98980.97;109163;1266;22019;-77
2022/04/06 03:23:29;;;;;;;12.70;11.70;;;;;;;8.32;77.08;98981.48;109186;1263;21999;-78
2022/04/06 03:26:38;;;;;;;13.20;12.20;;;;;;;8.35;77.11;98984.11;109604;1263;22339;-77
2022/04/06 03:29:15;;;;;;;12.60;11.60;;;;;;;8.36;77.04;98987.12;109332;1264;22456;-77
2022/04/06 03:31:57;;;;;;;12.30;11.30;;;;;;;8.36;77.01;98982.90;109486;1254;21983;-77
2022/04/06 03:34:50;;;;;;;13.30;12.10;;;;;;;8.37;77.09;98982.41;110228;1257;22014;-77
2022/04/06 03:37:41;;;;;;;11.80;10.80;;;;;;;8.41;77.21;98979.83;109869;1259;21988;-77
2022/04/06 03:40:32;;;;;;;12.70;11.70;;;;;;;8.42;77.15;98977.13;110087;1259;22001;-77
2022/04/06 03:43:32;;;;;;;13.60;12.50;;;;;;;8.42;77.15;98980.23;110677;1253;22226;-77
2022/04/06 03:46:17;;;;;;;13.00;11.90;;;;;;;8.44;77.21;98981.77;110920;1248;24347;-78
2022/04/06 03:49:09;;;;;;;13.30;12.30;;;;;;;8.46;77.26;98979.42;110985;1247;22995;-78
2022/04/06 03:52:12;;;;;;;13.50;12.50;;;;;;;8.47;77.30;98981.58;111227;1238;22880;-78
2022/04/06 03:55:19;;;;;;;13.30;12.20;;;;;;;8.46;77.29;98981.65;112311;1231;23011;-78
2022/04/06 03:58:19;;;;;;;15.10;13.90;;;;;;;8.48;77.32;98981.88;112079;1237;21970;-78
2022/04/06 04:01:13;;;;;;;16.00;13.80;;;;;;;8.49;77.44;98983.60;111361;1241;24099;-78
2022/04/06 04:04:12;;;;;;;16.40;15.20;;;;;;;8.50;77.31;98983.80;111754;1240;23664;-78
2022/04/06 04:07:33;;;;;;;;;;;;;;;;;;;;;
2022/04/06 04:10:51;;;;;;;;;;;;;;;;;;;;;
2022/04/06 04:13:49;;;;;;;17.70;16.20;;;;;;;8.53;77.70;98984.92;110743;1250;24370;-78
2022/04/06 04:16:46;;;;;;;18.00;16.70;;;;;;;8.58;77.87;98983.72;110959;1245;22784;-78
2022/04/06 04:19:24;;;;;;;18.00;16.60;;;;;;;8.63;77.69;98984.53;111213;1242;21973;-78
2022/04/06 04:22:01;;;;;;;18.10;16.50;;;;;;;8.66;77.66;98986.66;111118;1247;21966;-78
2022/04/06 04:24:56;;;;;;;;;;;;;;;;;;;;;
2022/04/06 04:33:14;;;;;;;18.90;17.40;;;;;;;8.69;77.69;98983.29;110665;1250;21982;-78
2022/04/06 04:37:27;;;;;;;;;;;;;;;;;;;;;
2022/04/06 04:40:34;;;;;;;18.00;16.50;;;;;;;8.69;77.87;98988.19;110344;1254;21994;-77
2022/04/06 04:44:44;;;;;;;;;;;;;;;;;;;;;
2022/04/06 04:48:13;;;;;;;;;;;;;;;;;;;;;
2022/04/06 04:51:15;;;;;;;18.00;16.40;;;;;;;8.75;77.87;98987.16;109912;1260;22008;-78
2022/04/06 04:54:08;;;;;;;;;;;;;;;;;;;;;
2022/04/06 04:57:13;;;;;;;18.60;17.00;;;;;;;8.77;77.70;98989.20;110107;1259;21992;-78
2022/04/06 04:59:52;;;;;;;17.70;16.10;;;;;;;8.78;77.68;98993.58;110063;1259;22752;-78
2022/04/06 05:02:34;;;;;;;17.40;16.00;;;;;;;8.79;77.67;98992.38;110061;1257;22050;-79
2022/04/06 05:05:11;;;;;;;18.30;16.80;;;;;;;8.83;77.84;98993.47;110331;1254;23708;-77
2022/04/06 05:07:41;;;;;;;29.30;26.90;;;;;;;8.85;77.74;98994.81;110500;1254;23729;-77
2022/04/06 05:10:12;;;;;;;33.10;29.90;;;;;;;8.88;77.68;98999.21;109968;1259;23088;-77
2022/04/06 05:12:45;;;;;;;25.90;23.60;;;;;;;8.91;77.69;98998.63;109740;1260;22010;-78
2022/04/06 05:15:20;;;;;;;28.00;25.20;;;;;;;8.93;77.62;99001.85;110193;1256;23425;-80
2022/04/06 05:18:21;;;;;;;23.70;21.70;;;;;;;8.94;77.57;99007.70;110702;1256;23409;-79
2022/04/06 05:21:25;;;;;;;18.70;17.20;;;;;;;8.95;77.57;99006.98;109898;1260;23040;-79
2022/04/06 05:24:10;;;;;;;20.30;18.60;;;;;;;8.98;77.57;99008.29;109567;1258;22112;-79
2022/04/06 05:26:52;;;;;;;19.10;17.60;;;;;;;9.04;77.53;99010.27;110460;1255;21987;-78
2022/04/06 05:29:47;;;;;;;20.50;18.80;;;;;;;9.08;77.52;99012.68;110764;1250;23801;-78
2022/04/06 05:32:25;;;;;;;;;;;;;;;;;;;;;
2022/04/06 05:34:57;;;;;;;18.60;16.90;;;;;;;9.20;77.28;99012.99;111447;1244;22363;-78
2022/04/06 05:37:40;;;;;;;16.90;14.60;;;;;;;9.24;77.24;99016.84;111221;1247;22735;-78
2022/04/06 05:40:20;;;;;;;16.80;15.30;;;;;;;9.28;77.12;99018.01;111871;1238;22196;-78
2022/04/06 05:43:07;;;;;;;16.40;14.90;;;;;;;9.32;77.07;99018.15;112657;1231;22683;-78
2022/04/06 05:46:08;;;;;;;17.70;15.90;;;;;;;9.37;76.95;99023.86;112609;1230;23654;-79
2022/04/06 05:48:46;;;;;;;16.70;15.40;;;;;;;9.43;76.94;99027.27;112046;1236;23725;-77
2022/04/06 05:51:25;;;;;;;15.40;14.10;;;;;;;9.49;76.80;99029.58;111630;1238;23014;-77
2022/04/06 05:53:53;;;;;;;14.30;13.10;;;;;;;9.53;76.61;99030.98;112405;1236;21944;-79
2022/04/06 05:56:48;;;;;;;;;;;;;;;9.56;76.43;99031.25;111254;1245;21982;-79
2022/04/06 05:59:22;;;;;;;12.70;11.60;;;;;;;9.49;76.31;99032.54;110509;1255;21983;-80
2022/04/06 06:02:01;;;;;;;14.80;13.40;;;;;;;9.47;76.33;99033.59;110462;1256;24380;-79
2022/04/06 06:05:32;;;;;;;13.60;12.50;;;;;;;9.50;76.18;99040.66;110425;1256;23667;-79
2022/04/06 06:08:08;;;;;;;13.60;12.30;;;;;;;9.50;76.15;99046.63;109617;1262;23245;-78
2022/04/06 06:10:40;;;;;;;13.20;12.10;;;;;;;9.50;76.17;99049.10;109699;1262;22006;-79
2022/04/06 06:13:14;;;;;;;;;;;;;;;9.54;76.42;99050.84;109184;1264;22155;-79
2022/04/06 06:16:00;;;;;;;13.60;12.40;;;;;;;9.51;76.57;99053.58;110046;1259;22004;-78
2022/04/06 06:18:29;;;;;;;13.90;12.70;;;;;;;9.52;76.47;99055.04;109624;1262;23099;-79
2022/04/06 06:21:32;;;;;;;13.90;12.60;;;;;;;9.54;76.46;99056.02;109356;1262;23743;-79
2022/04/06 06:24:26;;;;;;;13.90;12.50;;;;;;;9.57;76.46;99052.59;109380;1263;24379;-78
2022/04/06 06:31:21;;;;;;;;;;;;;;;;;;;;;
2022/04/06 06:34:01;;;;;;;13.30;12.00;;;;;;;9.68;76.66;99058.83;109278;1266;22000;-77
2022/04/06 06:36:41;;;;;;;;;;;;;;;;;;;;;
2022/04/06 06:39:11;;;;;;;17.10;15.50;;;;;;;9.78;76.57;99063.06;110369;1257;22038;-77
2022/04/06 06:41:56;;;;;;;25.50;23.10;;;;;;;9.85;76.54;99067.52;110071;1257;22275;-78
2022/04/06 06:44:43;;;;;;;19.00;17.20;;;;;;;9.88;76.45;99065.16;110408;1251;23770;-78
2022/04/06 06:47:43;;;;;;;;;;;;;;;;;;;;;
2022/04/06 06:50:21;;;;;;;16.00;14.50;;;;;;;9.87;76.15;99070.96;110874;1251;23046;-78
2022/04/06 06:52:52;;;;;;;15.00;13.50;;;;;;;9.86;76.19;99072.16;110566;1253;21969;-78
2022/04/06 06:55:26;;;;;;;17.80;16.10;;;;;;;9.87;76.26;99074.52;110644;1253;22014;-78
2022/04/06 06:58:18;;;;;;;20.20;18.10;;;;;;;9.85;76.26;99077.31;110811;1251;21985;-78
2022/04/06 07:00:51;;;;;;;24.30;22.00;;;;;;;9.85;76.36;99082.59;110607;1253;22114;-77
2022/04/06 07:03:20;;;;;;;15.10;13.70;;;;;;;9.89;76.42;99083.38;110591;1253;22595;-79
2022/04/06 07:06:02;;;;;;;20.10;18.30;;;;;;;9.90;76.22;99079.16;110921;1251;21997;-78
2022/04/06 07:08:54;;;;;;;17.70;16.00;;;;;;;9.91;76.46;99079.36;111352;1242;311283;-79
2022/04/06 07:11:25;;;;;;;15.70;14.20;;;;;;;9.95;76.51;99075.05;111845;1237;21967;-78
2022/04/06 07:13:55;;;;;;;17.90;15.00;;;;;;;10.00;76.51;99074.31;112053;1236;22125;-79
2022/04/06 07:16:29;;;;;;;14.10;12.80;;;;;;;10.04;76.56;99078.07;111238;1242;22060;-79
2022/04/06 07:19:42;;;;;;;16.00;14.50;;;;;;;10.04;76.33;99083.55;111256;1247;23758;-78
2022/04/06 07:22:18;;;;;;;15.80;14.30;;;;;;;10.07;76.47;99083.81;110999;1247;23069;-78
2022/04/06 07:24:52;;;;;;;17.70;16.20;;;;;;;10.11;76.48;99085.83;111166;1247;23075;-78
2022/04/06 07:27:36;;;;;;;18.90;17.00;;;;;;;10.18;76.52;99082.80;111553;1242;21977;-77
2022/04/06 07:30:11;;;;;;;17.60;16.00;;;;;;;10.21;76.22;99084.00;111494;1242;21960;-78
2022/04/06 07:32:44;;;;;;;15.90;14.50;;;;;;;10.20;75.95;99083.58;111530;1244;22116;-77
2022/04/06 07:35:16;;;;;;;16.00;14.50;;;;;;;10.22;76.03;99084.60;111963;1236;21965;-78
2022/04/06 07:37:49;;;;;;;14.90;13.70;;;;;;;10.19;75.63;99079.89;112181;1233;22035;-78
2022/04/06 07:40:26;;;;;;;15.90;14.30;;;;;;;10.15;75.70;99077.23;113004;1231;23693;-78
2022/04/06 07:43:14;;;;;;;14.20;12.70;;;;;;;10.16;75.79;99075.52;112888;1230;21963;-77
2022/04/06 07:45:58;;;;;;;;;;;;;;;;;;;;;
2022/04/06 07:48:30;;;;;;;;;;;;;;;10.22;76.12;99081.68;112924;1232;23681;-78
2022/04/06 07:51:04;;;;;;;22.30;17.70;;;;;;;10.20;76.16;99085.01;112317;1237;22477;-79
2022/04/06 07:53:39;;;;;;;17.10;15.60;;;;;;;10.23;76.09;99085.23;112183;1237;22241;-78
2022/04/06 07:56:22;;;;;;;16.60;15.00;;;;;;;10.24;75.68;99090.12;111818;1237;23012;-78
2022/04/06 07:59:27;;;;;;;22.90;16.30;;;;;;;10.23;75.76;99084.69;112216;1236;21978;-79
2022/04/06 08:02:04;;;;;;;15.90;14.50;;;;;;;10.26;75.96;99086.56;112368;1236;23710;-78
2022/04/06 08:04:53;;;;;;;;;;;;;;;;;;;;;
2022/04/06 08:07:24;;;;;;;18.00;16.40;;;;;;;10.34;75.55;99085.88;112570;1236;23038;-79
2022/04/06 08:09:52;;;;;;;18.60;16.90;;;;;;;10.37;75.37;99080.45;112607;1233;21964;-79
2022/04/06 08:12:25;;;;;;;22.10;19.90;;;;;;;10.38;75.18;99087.42;111897;1236;21949;-79
2022/04/06 08:15:15;;;;;;;16.80;15.20;;;;;;;10.34;74.79;99092.73;112110;1237;22845;-80
2022/04/06 08:17:57;;;;;;;19.60;17.70;;;;;;;10.29;74.80;99094.42;111527;1242;21947;-79
2022/04/06 08:20:29;;;;;;;18.50;16.80;;;;;;;10.29;74.78;99094.83;111112;1247;21962;-79
2022/04/06 08:23:09;;;;;;;19.10;17.30;;;;;;;10.30;74.75;99098.67;110684;1251;23786;-79
2022/04/06 08:25:38;;;;;;;16.60;15.20;;;;;;;10.32;74.70;99098.98;110468;1254;21985;-79
2022/04/06 08:28:19;;;;;;;17.50;15.90;;;;;;;10.35;74.61;99104.80;110834;1253;22992;-79
2022/04/06 08:30:54;;;;;;;17.70;16.20;;;;;;;10.35;74.55;99107.30;110002;1259;22137;-79
2022/04/06 08:33:22;;;;;;;20.30;18.20;;;;;;;10.34;74.42;99112.35;109284;1265;22457;-80
2022/04/06 08:35:56;;;;;;;17.10;15.60;;;;;;;10.32;74.34;99113.39;109713;1259;22177;-79
2022/04/06 08:38:29;;;;;;;18.90;17.00;;;;;;;10.30;74.38;99114.69;110213;1253;21972;-79
2022/04/06 08:41:00;;;;;;;20.20;18.10;;;;;;;10.32;74.70;99117.17;110768;1249;22082;-80
2022/04/06 08:43:30;;;;;;;18.40;16.60;;;;;;;10.34;74.84;99117.38;110725;1248;22763;-79
2022/04/06 08:46:38;;;;;;;17.30;15.70;;;;;;;10.36;74.86;99128.11;110714;1250;23513;-78
2022/04/06 08:49:54;;;;;;;;;;;;;;;;;;;;;
2022/04/06 08:52:44;;;;;;;22.00;19.90;;;;;;;10.35;75.27;99136.59;111111;1245;22819;-79
2022/04/06 08:55:53;;;;;;;;;;;;;;;;;;;;;
2022/04/06 08:58:57;;;;;;;;;;;;;;;;;;;;;
2022/04/06 09:01:37;;;;;;;17.90;16.20;;;;;;;10.53;75.76;99147.88;111352;1247;21957;-80
2022/04/06 09:04:26;;;;;;;;;;;;;;;;;;;;;
2022/04/06 09:07:34;;;;;;;17.50;16.00;;;;;;;10.63;75.55;99149.48;111428;1245;23027;-79
2022/04/06 09:10:37;;;;;;;;;;;;;;;;;;;;;
2022/04/06 09:13:42;;;;;;;15.10;13.80;;;;;;;10.68;75.46;99141.29;111602;1245;22722;-80
2022/04/06 09:16:38;;;;;;;19.00;17.20;;;;;;;10.68;75.33;99146.33;111150;1250;23571;-79
2022/04/06 09:23:04;;;;;;;;;;;;;;;;;;;;;
2022/04/06 09:26:22;;;;;;;13.10;11.60;;;;;;;11.00;75.29;99138.52;110797;1254;21993;-79
2022/04/06 09:29:27;;;;;;;11.80;10.60;;;;;;;11.00;74.61;99138.17;110485;1251;22960;-79
2022/04/06 09:32:26;;;;;;;10.80;9.80;;;;;;;10.98;74.26;99138.15;110926;1251;22267;-79
2022/04/06 09:35:40;;;;;;;;;;;;;;;;;;;;;
2022/04/06 09:38:41;;;;;;;9.60;8.30;;;;;;;10.84;73.40;99133.89;111469;1244;22012;-78
2022/04/06 09:42:00;;;;;;;11.20;8.90;;;;;;;10.76;73.18;99132.90;110760;1251;22390;-79
2022/04/06 09:50:29;;;;;;;13.20;10.90;;;;;;;10.61;72.52;99136.33;111055;1250;21967;-79
2022/04/06 09:53:00;;;;;;;14.80;13.20;;;;;;;10.52;72.32;99132.95;110943;1251;22063;-80
2022/04/06 09:55:56;;;;;;;;;;;;;;;;;;;;;
2022/04/06 09:58:47;;;;;;;;;;;;;;;;;;;;;
2022/04/06 10:01:41;;;;;;;13.10;9.60;;;;;;;10.34;72.70;99140.48;112116;1236;21981;-79
2022/04/06 10:04:34;;;;;;;11.50;9.50;;;;;;;10.34;72.77;99139.23;112567;1237;21942;-79
2022/04/06 10:07:31;;;;;;;13.60;10.30;;;;;;;10.31;72.73;99128.90;112272;1236;24911;-79
2022/04/06 10:10:23;;;;;;;13.70;12.10;;;;;;;10.31;72.86;99121.30;112002;1240;21964;-80
2022/04/06 10:12:57;;;;;;;14.10;11.90;;;;;;;10.33;72.90;99120.96;111670;1244;21951;-80
2022/04/06 10:16:16;;;;;;;;;;;;;;;;;;;;;
2022/04/06 10:19:31;;;;;;;;;;;;;;;;;;;;;
2022/04/06 10:22:52;;;;;;;19.70;15.40;;;;;;;12.09;76.28;99119.07;111320;1248;21982;-79
2022/04/06 10:26:30;;;;;;;13.60;12.40;;;;;;;12.65;73.09;99115.63;110600;1254;22145;-80
2022/04/06 10:29:05;;;;;;;13.30;11.90;;;;;;;12.84;71.35;99112.92;110549;1257;23174;-79
2022/04/06 10:31:59;;;;;;;16.10;14.40;;;;;;;13.02;70.99;99114.85;109903;1257;22320;-80
2022/04/06 10:34:47;;;;;;;;;;;;;;;;;;;;;
2022/04/06 10:37:28;;;;;;;24.70;22.20;;;;;;;13.65;70.98;99112.86;109979;1260;22316;-80
2022/04/06 10:40:10;;;;;;;;;;;;;;;;;;;;;
2022/04/06 10:42:46;;;;;;;16.30;13.60;;;;;;;13.94;68.40;99105.30;109997;1258;21993;-79
2022/04/06 10:45:42;;;;;;;14.60;13.20;;;;;;;14.04;67.89;99099.66;110358;1256;25022;-79
2022/04/06 10:49:09;;;;;;;15.20;13.90;;;;;;;14.13;67.29;99100.29;109687;1260;22913;-79
2022/04/06 10:52:26;;;;;;;15.10;13.70;;;;;;;14.19;66.69;99099.46;110290;1259;21991;-80
2022/04/06 10:55:32;;;;;;;17.60;16.00;;;;;;;14.23;65.87;99096.38;109345;1265;21997;-80
2022/04/06 10:58:23;;;;;;;16.10;14.50;;;;;;;14.21;65.35;99097.39;110091;1256;22174;-79
2022/04/06 11:01:18;;;;;;;16.70;15.00;;;;;;;14.16;65.01;99096.75;110445;1256;22474;-80
2022/04/06 11:04:00;;;;;;;15.50;14.10;;;;;;;14.17;65.03;99101.19;110782;1250;22135;-80
2022/04/06 11:06:59;;;;;;;17.90;16.30;;;;;;;14.21;64.79;99098.48;111203;1245;23025;-78
2022/04/06 11:10:15;;;;;;;15.30;13.70;;;;;;;14.25;64.39;99088.74;111554;1242;23746;-79
2022/04/06 11:13:16;;;;;;;14.40;13.10;;;;;;;14.20;63.50;99090.58;111512;1236;21976;-79
2022/04/06 11:15:52;;;;;;;26.20;19.90;;;;;;;14.10;62.97;99091.39;112054;1236;23712;-78
2022/04/06 11:18:58;;;;;;;18.30;16.60;;;;;;;13.99;62.74;99087.24;111694;1241;22002;-79
2022/04/06 11:21:37;;;;;;;20.70;18.50;;;;;;;13.86;62.43;99086.90;111537;1242;21954;-79
2022/04/06 11:24:31;;;;;;;17.20;15.30;;;;;;;13.76;62.24;99085.93;111561;1242;22331;-79
2022/04/06 11:27:36;;;;;;;15.70;13.00;;;;;;;13.70;62.18;99089.33;111813;1242;21967;-79
2022/04/06 11:30:17;;;;;;;18.10;15.50;;;;;;;13.63;61.88;99082.81;111756;1239;23655;-80
2022/04/06 11:32:54;;;;;;;16.00;12.50;;;;;;;13.59;61.74;99079.76;111451;1244;21970;-80
2022/04/06 11:35:28;;;;;;;15.10;11.50;;;;;;;13.59;61.62;99078.29;111484;1244;22108;-80
2022/04/06 11:38:16;;;;;;;14.60;12.30;;;;;;;13.56;61.35;99076.89;112003;1239;21970;-79
2022/04/06 11:41:12;;;;;;;20.40;12.30;;;;;;;13.56;61.35;99078.00;112296;1238;21910;-80
2022/04/06 11:44:28;;;;;;;;;;;;;;;;;;;;;
2022/04/06 11:47:25;;;;;;;13.90;10.60;;;;;;;13.58;60.81;99082.34;112111;1239;21981;-79
2022/04/06 11:50:14;;;;;;;12.40;10.40;;;;;;;13.55;60.31;99084.38;111809;1237;21949;-80
2022/04/06 11:53:17;;;;;;;;;;;;;;;13.53;60.33;99084.15;112466;1235;23552;-80
2022/04/06 11:56:31;;;;;;;14.20;8.90;;;;;;;13.43;60.37;99079.91;112752;1235;22375;-79
2022/04/06 11:59:21;;;;;;;;;;;;;;;;;;;;;
2022/04/06 12:02:48;;;;;;;24.80;16.70;;;;;;;13.46;60.00;99085.27;112831;1235;23592;-79
2022/04/06 12:05:34;;;;;;;;;;;;;;;;;;;;;
2022/04/06 12:08:40;;;;;;;19.50;15.10;;;;;;;13.34;59.21;99081.33;112705;1230;21948;-79
2022/04/06 12:11:59;;;;;;;18.20;14.70;;;;;;;13.30;59.41;99081.45;112881;1231;22285;-80
2022/04/06 12:14:46;;;;;;;;;;;;;;;;;;;;;
2022/04/06 12:17:45;;;;;;;16.10;13.10;;;;;;;13.34;59.63;99078.78;112739;1235;21996;-79
2022/04/06 12:20:36;;;;;;;13.50;12.00;;;;;;;13.40;59.47;99077.23;112364;1236;23559;-79
2022/04/06 12:23:53;;;;;;;;;;;;;;;;;;;;;
2022/04/06 12:27:04;;;;;;;27.00;20.10;;;;;;;13.62;59.74;99077.13;112228;1236;22602;-79
2022/04/06 12:30:16;;;;;;;22.60;20.60;;;;;;;13.74;59.06;99072.69;112540;1236;22012;-80
2022/04/06 12:32:52;;;;;;;15.50;11.80;;;;;;;13.81;58.64;99068.61;112035;1242;23700;-79
2022/04/06 12:36:26;;;;;;;13.80;12.40;;;;;;;13.81;58.33;99065.27;111542;1241;24738;-78
2022/04/06 12:39:18;;;;;;;13.70;12.40;;;;;;;13.79;58.40;99063.81;112341;1239;24374;-79
2022/04/06 12:42:14;;;;;;;13.30;12.10;;;;;;;13.77;58.40;99056.85;112008;1239;23827;-79
2022/04/06 12:45:06;;;;;;;13.90;12.60;;;;;;;13.74;58.40;99058.48;112217;1239;23023;-78
2022/04/06 12:47:37;;;;;;;14.80;12.20;;;;;;;13.71;58.45;99059.06;111897;1239;21973;-79
2022/04/06 12:50:18;;;;;;;16.00;14.10;;;;;;;13.70;58.47;99054.27;111849;1239;23776;-78
2022/04/06 12:53:10;;;;;;;15.40;13.80;;;;;;;13.69;58.44;99049.18;111523;1245;23751;-80
2022/04/06 12:56:26;;;;;;;15.70;14.30;;;;;;;13.69;58.53;99046.11;111250;1244;21969;-80
2022/04/06 13:02:06;;;;;;;13.90;12.40;;;;;;;13.59;58.32;99045.39;111376;1245;21983;-80
2022/04/06 13:04:49;;;;;;;15.40;13.30;;;;;;;13.58;58.38;99045.73;111194;1248;23647;-81
2022/04/06 13:07:31;;;;;;;9.60;8.50;;;;;;;13.62;58.29;99040.71;111013;1248;21961;-80
2022/04/06 13:10:48;;;;;;;15.00;9.80;;;;;;;13.65;57.85;99036.44;111499;1239;23680;-78
2022/04/06 13:13:28;;;;;;;11.10;7.80;;;;;;;13.65;56.95;99036.80;112723;1236;21954;-79
2022/04/06 13:16:07;;;;;;;9.90;7.50;;;;;;;13.64;56.56;99045.95;112346;1236;23062;-79
2022/04/06 13:19:10;;;;;;;12.20;7.30;;;;;;;13.67;56.31;99047.27;112132;1238;21953;-79
2022/04/06 13:21:55;;;;;;;10.80;8.90;;;;;;;13.69;55.81;99047.05;111722;1242;22691;-78
2022/04/06 13:24:35;;;;;;;10.50;8.00;;;;;;;13.70;55.45;99044.11;111956;1238;22447;-79
2022/04/06 13:27:25;;;;;;;12.20;9.00;;;;;;;13.71;55.38;99040.05;111661;1244;21980;-79
2022/04/06 13:30:09;;;;;;;12.00;7.90;;;;;;;13.74;55.22;99034.95;111610;1245;21995;-80
2022/04/06 13:32:57;;;;;;;11.50;8.20;;;;;;;13.80;55.19;99028.23;111866;1242;21956;-80
2022/04/06 13:35:50;;;;;;;17.60;8.00;;;;;;;13.84;54.73;99027.61;111672;1242;22749;-80
2022/04/06 13:38:33;;;;;;;8.60;6.80;;;;;;;13.87;54.55;99025.05;111782;1244;22018;-80
2022/04/06 13:41:30;;;;;;;8.10;6.00;;;;;;;13.94;54.23;99028.02;112377;1236;22752;-79
2022/04/06 13:45:04;;;;;;;11.60;8.80;;;;;;;14.03;54.05;99025.11;112934;1231;21952;-80
2022/04/06 13:48:14;;;;;;;;;;;;;;;;;;;;;
2022/04/06 13:51:06;;;;;;;12.10;8.30;;;;;;;14.22;53.43;99017.45;112151;1240;21950;-78
2022/04/06 13:53:49;;;;;;;10.10;8.40;;;;;;;14.25;53.13;99013.03;111639;1243;22099;-79
2022/04/06 13:56:36;;;;;;;14.00;8.90;;;;;;;14.23;52.84;99017.02;111429;1245;23075;-81
2022/04/06 13:59:32;;;;;;;13.20;11.90;;;;;;;14.18;52.52;99018.03;111523;1242;23572;-80
2022/04/06 14:02:17;;;;;;;12.80;8.90;;;;;;;14.07;52.35;99014.36;111236;1248;23628;-80
2022/04/06 14:05:19;;;;;;;14.30;10.00;;;;;;;13.97;52.33;99010.80;111335;1248;23601;-80
2022/04/06 14:07:57;;;;;;;11.90;10.10;;;;;;;13.88;52.52;99012.05;111326;1248;22312;-81
2022/04/06 14:10:35;;;;;;;13.40;12.10;;;;;;;13.81;52.77;99008.45;111437;1245;21965;-80
2022/04/06 14:13:14;;;;;;;12.40;11.10;;;;;;;13.79;53.09;99007.23;111276;1248;23773;-80
2022/04/06 14:15:49;;;;;;;15.70;12.30;;;;;;;13.75;53.20;99010.13;111380;1248;21979;-80
2022/04/06 14:18:28;;;;;;;11.20;10.10;;;;;;;13.66;53.32;99007.60;111151;1242;21978;-79
2022/04/06 14:21:44;;;;;;;10.10;9.10;;;;;;;13.54;53.41;99001.29;112443;1235;22865;-80
2022/04/06 14:24:18;;;;;;;14.40;10.70;;;;;;;13.46;53.86;98997.59;111260;1250;21990;-79
2022/04/06 14:26:53;;;;;;;12.50;11.30;;;;;;;13.44;54.21;98995.38;111146;1251;23605;-79
2022/04/06 14:29:29;;;;;;;14.50;13.00;;;;;;;13.44;54.33;98994.40;110901;1250;23041;-80
2022/04/06 14:32:10;;;;;;;17.40;13.20;;;;;;;13.42;54.39;98990.38;111561;1243;21996;-78
2022/04/06 14:34:52;;;;;;;16.20;14.50;;;;;;;13.40;54.55;98987.90;111691;1242;21968;-80
2022/04/06 14:37:20;;;;;;;20.90;18.80;;;;;;;13.38;54.58;98988.95;111468;1245;23346;-78
2022/04/06 14:39:51;;;;;;;25.80;21.60;;;;;;;13.39;54.96;98982.00;111251;1245;22979;-79
2022/04/06 14:42:28;;;;;;;25.60;21.70;;;;;;;13.40;55.00;98981.66;111721;1238;21974;-80
2022/04/06 14:45:08;;;;;;;20.80;18.60;;;;;;;13.39;55.15;98979.95;111876;1239;21968;-80
2022/04/06 14:47:44;;;;;;;21.90;15.90;;;;;;;13.38;55.07;98975.77;111496;1245;23796;-78
2022/04/06 14:50:13;;;;;;;15.50;13.90;;;;;;;13.37;55.23;98975.66;111161;1246;21997;-78